createdAt,value
2023-11-07T00:00:30.205Z,2.90
2023-11-07T00:02:57.756Z,2.60
2023-11-07T00:05:25.268Z,2.80
2023-11-07T00:07:53.343Z,2.80
2023-11-07T00:10:21.032Z,2.50
2023-11-07T00:12:53.449Z,3.20
2023-11-07T00:15:21.711Z,2.40
2023-11-07T00:17:50.564Z,2.60
2023-11-07T00:20:18.385Z,2.80
2023-11-07T00:22:45.868Z,2.70
2023-11-07T00:25:13.241Z,3.50
2023-11-07T00:27:41.012Z,2.50
2023-11-07T00:30:09.094Z,3.00
2023-11-07T00:32:36.606Z,2.80
2023-11-07T00:35:04.524Z,2.60
2023-11-07T00:37:31.952Z,2.50
2023-11-07T00:39:59.352Z,3.00
2023-11-07T00:42:26.736Z,2.60
2023-11-07T00:44:54.175Z,2.60
2023-11-07T00:47:21.660Z,2.40
2023-11-07T00:49:49.177Z,2.40
2023-11-07T00:52:16.702Z,2.30
2023-11-07T00:54:45.447Z,2.10
2023-11-07T00:57:12.956Z,2.30
2023-11-07T00:59:40.460Z,2.40
2023-11-07T01:02:07.984Z,2.10
2023-11-07T01:04:35.567Z,2.00
2023-11-07T01:07:03.965Z,2.20
2023-11-07T01:09:31.341Z,2.10
2023-11-07T01:11:58.875Z,2.20
2023-11-07T01:14:26.409Z,2.30
2023-11-07T01:16:53.801Z,2.10
2023-11-07T01:19:22.298Z,2.40
2023-11-07T01:21:49.854Z,2.10
2023-11-07T01:24:17.267Z,2.00
2023-11-07T01:26:44.783Z,1.80
2023-11-07T01:29:14.115Z,1.80
2023-11-07T01:31:41.486Z,1.70
2023-11-07T01:34:09.989Z,1.40
2023-11-07T01:36:37.519Z,1.50
2023-11-07T01:39:06.673Z,1.80
2023-11-07T01:41:34.936Z,1.40
2023-11-07T01:44:02.336Z,1.60
2023-11-07T01:46:29.768Z,1.90
2023-11-07T01:48:58.110Z,1.30
2023-11-07T01:51:26.504Z,1.40
2023-11-07T01:53:54.173Z,1.50
2023-11-07T01:56:25.684Z,1.40
2023-11-07T01:58:56.975Z,1.40
2023-11-07T02:01:26.171Z,1.50
2023-11-07T02:03:54.689Z,1.30
2023-11-07T02:06:22.285Z,2.10
2023-11-07T02:08:49.785Z,1.60
2023-11-07T02:11:17.502Z,1.90
2023-11-07T02:13:50.006Z,1.40
2023-11-07T02:16:18.700Z,1.40
2023-11-07T02:18:46.168Z,1.30
2023-11-07T02:21:13.771Z,1.60
2023-11-07T02:23:41.343Z,1.60
2023-11-07T02:26:08.769Z,1.30
2023-11-07T02:28:36.235Z,1.20
2023-11-07T02:31:05.159Z,1.50
2023-11-07T02:33:34.307Z,1.30
2023-11-07T02:36:01.891Z,1.40
2023-11-07T02:38:30.214Z,1.20
2023-11-07T02:40:57.762Z,1.50
2023-11-07T02:43:26.322Z,2.20
2023-11-07T02:45:54.028Z,1.30
2023-11-07T02:48:21.601Z,1.30
2023-11-07T02:50:49.114Z,1.40
2023-11-07T02:53:16.570Z,1.20
2023-11-07T02:55:43.951Z,1.30
2023-11-07T02:58:12.235Z,1.40
2023-11-07T03:00:40.038Z,1.50
2023-11-07T03:03:07.698Z,1.30
2023-11-07T03:05:35.222Z,1.30
2023-11-07T03:08:03.317Z,1.90
2023-11-07T03:10:30.684Z,1.50
2023-11-07T03:12:58.106Z,1.50
2023-11-07T03:15:25.819Z,2.00
2023-11-07T03:17:53.368Z,1.30
2023-11-07T03:20:21.608Z,1.50
2023-11-07T03:22:49.077Z,1.40
2023-11-07T03:25:17.972Z,1.70
2023-11-07T03:27:45.378Z,1.60
2023-11-07T03:30:13.485Z,1.40
2023-11-07T03:32:40.996Z,1.60
2023-11-07T03:35:10.157Z,1.80
2023-11-07T03:37:38.877Z,1.30
2023-11-07T03:40:07.841Z,1.40
2023-11-07T03:42:35.743Z,1.70
2023-11-07T03:45:03.454Z,1.70
2023-11-07T03:47:30.963Z,1.70
2023-11-07T03:49:58.348Z,1.50
2023-11-07T03:52:25.720Z,1.80
2023-11-07T03:54:53.157Z,1.40
2023-11-07T03:57:20.626Z,1.40
2023-11-07T03:59:48.121Z,1.60
2023-11-07T04:02:15.556Z,1.60
2023-11-07T04:04:43.026Z,1.60
2023-11-07T04:07:10.512Z,1.20
2023-11-07T04:09:38.713Z,1.90
2023-11-07T04:12:07.291Z,1.70
2023-11-07T04:14:34.794Z,1.50
2023-11-07T04:17:05.882Z,1.60
2023-11-07T04:19:34.945Z,1.60
2023-11-07T04:22:05.380Z,2.10
2023-11-07T04:24:32.807Z,1.80
2023-11-07T04:27:00.288Z,1.70
2023-11-07T04:29:27.763Z,1.80
2023-11-07T04:31:55.216Z,1.80
2023-11-07T04:34:22.916Z,1.80
2023-11-07T04:36:56.131Z,2.30
2023-11-07T04:39:24.096Z,2.10
2023-11-07T04:41:51.501Z,2.00
2023-11-07T04:44:21.419Z,2.00
2023-11-07T04:46:48.851Z,1.90
2023-11-07T04:49:16.413Z,2.00
2023-11-07T04:51:44.006Z,2.30
2023-11-07T04:54:11.830Z,2.00
2023-11-07T04:56:39.308Z,2.00
2023-11-07T04:59:07.091Z,2.50
2023-11-07T05:01:34.522Z,2.50
2023-11-07T05:04:03.585Z,2.40
2023-11-07T05:06:31.941Z,2.10
2023-11-07T05:09:00.153Z,2.80
2023-11-07T05:11:28.890Z,2.50
2023-11-07T05:13:56.514Z,2.60
2023-11-07T05:16:23.981Z,2.30
2023-11-07T05:18:52.313Z,2.40
2023-11-07T05:21:19.964Z,2.80
2023-11-07T05:23:47.430Z,2.10
2023-11-07T05:26:15.241Z,2.50
2023-11-07T05:28:44.342Z,2.20
2023-11-07T05:31:11.714Z,2.30
2023-11-07T05:33:39.605Z,2.20
2023-11-07T05:36:08.400Z,2.30
2023-11-07T05:38:35.868Z,2.30
2023-11-07T05:41:03.480Z,2.30
2023-11-07T05:43:30.882Z,2.30
2023-11-07T05:45:58.255Z,2.60
2023-11-07T05:48:26.074Z,2.60
2023-11-07T05:50:53.779Z,2.80
2023-11-07T05:53:21.201Z,3.20
2023-11-07T05:55:49.646Z,2.70
2023-11-07T05:58:18.159Z,2.90
2023-11-07T06:00:45.583Z,2.60
2023-11-07T06:03:14.903Z,2.70
2023-11-07T06:05:45.570Z,2.90
2023-11-07T06:08:13.932Z,2.40
2023-11-07T06:10:41.698Z,2.20
2023-11-07T06:13:09.141Z,2.20
2023-11-07T06:15:36.893Z,2.30
2023-11-07T06:18:04.813Z,2.30
2023-11-07T06:20:32.344Z,2.30
2023-11-07T06:22:59.881Z,2.50
2023-11-07T06:25:27.360Z,2.30
2023-11-07T06:27:55.489Z,2.50
2023-11-07T06:30:23.335Z,2.60
2023-11-07T06:32:51.329Z,2.30
2023-11-07T06:35:19.742Z,2.60
2023-11-07T06:37:48.104Z,3.60
2023-11-07T06:40:19.329Z,2.60
2023-11-07T06:42:48.383Z,2.30
2023-11-07T06:45:16.377Z,2.60
2023-11-07T06:47:46.991Z,2.40
2023-11-07T06:50:17.165Z,2.90
2023-11-07T06:52:53.673Z,2.70
2023-11-07T06:55:26.665Z,2.70
2023-11-07T06:57:56.535Z,3.10
2023-11-07T07:00:27.000Z,3.10
2023-11-07T07:02:57.073Z,3.30
2023-11-07T07:05:27.042Z,3.10
2023-11-07T07:07:55.874Z,3.50
2023-11-07T07:10:24.127Z,2.60
2023-11-07T07:12:52.438Z,2.60
2023-11-07T07:15:20.116Z,2.80
2023-11-07T07:17:48.310Z,3.00
2023-11-07T07:20:15.960Z,3.10
2023-11-07T07:22:45.737Z,3.20
2023-11-07T07:25:17.275Z,2.80
2023-11-07T07:27:47.092Z,2.90
2023-11-07T07:30:23.210Z,3.30
2023-11-07T07:32:52.677Z,3.50
2023-11-07T07:35:22.893Z,3.70
2023-11-07T07:37:54.610Z,4.20
2023-11-07T07:40:27.794Z,3.80
2023-11-07T07:43:10.491Z,3.90
2023-11-07T07:45:44.671Z,3.90
2023-11-07T07:48:13.269Z,3.90
2023-11-07T07:50:43.563Z,4.30
2023-11-07T07:53:12.264Z,4.30
2023-11-07T07:55:44.749Z,4.00
2023-11-07T07:58:13.197Z,4.10
2023-11-07T08:00:44.796Z,3.70
2023-11-07T08:03:14.397Z,3.40
2023-11-07T08:05:44.012Z,3.50
2023-11-07T08:08:13.592Z,3.70
2023-11-07T08:10:41.082Z,3.30
2023-11-07T08:13:11.464Z,3.90
2023-11-07T08:15:39.391Z,4.80
2023-11-07T08:18:08.066Z,4.60
2023-11-07T08:21:52.640Z,3.40
2023-11-07T08:24:20.446Z,3.50
2023-11-07T08:26:51.583Z,3.70
2023-11-07T08:29:19.143Z,3.00
2023-11-07T08:31:46.586Z,3.50
2023-11-07T08:34:14.234Z,3.40
2023-11-07T08:36:51.773Z,3.00
2023-11-07T08:39:29.015Z,2.70
2023-11-07T08:41:57.472Z,2.80
2023-11-07T08:44:25.162Z,2.80
2023-11-07T08:46:52.814Z,2.60
2023-11-07T08:49:21.276Z,2.90
2023-11-07T08:51:53.546Z,3.00
2023-11-07T08:54:21.299Z,3.30
2023-11-07T08:56:50.877Z,3.70
2023-11-07T08:59:21.669Z,3.70
2023-11-07T09:01:51.156Z,4.20
2023-11-07T09:04:18.951Z,3.80
2023-11-07T09:06:46.644Z,3.40
2023-11-07T09:09:16.430Z,2.90
2023-11-07T09:11:48.277Z,2.80
2023-11-07T09:14:16.860Z,3.70
2023-11-07T09:16:44.238Z,3.70
2023-11-07T09:19:12.286Z,2.60
2023-11-07T09:21:40.236Z,2.80
2023-11-07T09:24:08.739Z,3.40
2023-11-07T09:26:36.506Z,2.90
2023-11-07T09:29:05.795Z,3.40
2023-11-07T09:31:34.050Z,3.20
2023-11-07T09:34:01.963Z,4.00
2023-11-07T09:36:29.555Z,3.00
2023-11-07T09:38:57.642Z,2.90
2023-11-07T09:41:26.357Z,2.70
2023-11-07T09:43:53.839Z,3.20
2023-11-07T09:47:00.194Z,2.50
2023-11-07T09:49:46.490Z,3.80
2023-11-07T09:52:16.630Z,3.40
2023-11-07T09:55:41.598Z,2.90
2023-11-07T09:58:30.933Z,3.40
2023-11-07T10:01:36.346Z,2.90
2023-11-07T10:04:24.508Z,2.80
2023-11-07T10:07:10.936Z,2.80
2023-11-07T10:10:18.101Z,3.10
2023-11-07T10:12:49.118Z,2.20
2023-11-07T10:15:42.384Z,2.30
2023-11-07T10:18:28.561Z,2.60
2023-11-07T10:21:14.828Z,2.60
2023-11-07T10:24:01.599Z,2.90
2023-11-07T10:26:49.856Z,2.60
2023-11-07T10:29:40.818Z,2.60
2023-11-07T10:33:27.248Z,2.30
2023-11-07T10:37:11.086Z,2.60
2023-11-07T10:40:18.626Z,2.00
2023-11-07T10:43:05.509Z,2.30
2023-11-07T10:45:52.985Z,2.50
2023-11-07T10:48:41.014Z,2.30
2023-11-07T10:51:12.470Z,2.30
2023-11-07T10:54:00.927Z,2.40
2023-11-07T10:56:51.781Z,2.50
2023-11-07T10:59:43.134Z,2.10
2023-11-07T11:02:50.114Z,2.00
2023-11-07T11:05:56.160Z,2.20
2023-11-07T11:09:02.354Z,2.40
2023-11-07T11:12:08.150Z,1.90
2023-11-07T11:15:35.568Z,2.30
2023-11-07T11:18:09.350Z,2.50
2023-11-07T11:21:13.378Z,2.00
2023-11-07T11:24:05.685Z,2.20
2023-11-07T11:27:25.373Z,2.30
2023-11-07T11:30:12.944Z,2.40
2023-11-07T11:32:45.517Z,1.90
2023-11-07T11:35:22.588Z,2.60
2023-11-07T11:38:24.805Z,2.10
2023-11-07T11:41:11.423Z,1.70
2023-11-07T11:44:32.609Z,1.80
2023-11-07T11:47:52.581Z,2.30
2023-11-07T11:50:39.919Z,2.60
2023-11-07T11:53:35.713Z,2.10
2023-11-07T11:56:21.882Z,1.80
2023-11-07T11:59:28.323Z,2.10
2023-11-07T12:02:38.484Z,2.30
2023-11-07T12:05:43.669Z,2.60
2023-11-07T12:08:54.354Z,1.80
2023-11-07T12:11:45.570Z,2.10
2023-11-07T12:14:38.678Z,2.90
2023-11-07T12:17:06.034Z,2.90
2023-11-07T12:20:11.269Z,2.70
2023-11-07T12:22:43.796Z,2.90
2023-11-07T12:26:07.852Z,2.90
2023-11-07T12:29:32.324Z,3.30
2023-11-07T12:32:18.677Z,2.80
2023-11-07T12:34:47.866Z,2.90
2023-11-07T12:37:53.156Z,2.70
2023-11-07T12:41:18.173Z,2.70
2023-11-07T12:44:30.546Z,3.00
2023-11-07T12:47:36.104Z,2.30
2023-11-07T12:50:23.400Z,2.70
2023-11-07T12:53:51.359Z,2.50
2023-11-07T13:00:21.926Z,2.30
2023-11-07T13:03:49.580Z,2.90
2023-11-07T13:06:40.570Z,2.10
2023-11-07T13:09:16.980Z,2.40
2023-11-07T13:11:45.309Z,2.00
2023-11-07T13:14:50.742Z,1.80
2023-11-07T13:17:56.116Z,1.90
2023-11-07T13:20:42.538Z,1.60
2023-11-07T13:24:06.866Z,2.00
2023-11-07T13:27:12.159Z,1.40
2023-11-07T13:30:36.322Z,1.30
2023-11-07T13:33:43.779Z,1.30
2023-11-07T13:37:09.584Z,1.40
2023-11-07T13:39:55.998Z,1.40
2023-11-07T13:42:23.942Z,1.50
2023-11-07T13:45:29.790Z,1.60
2023-11-07T13:48:16.045Z,1.40
2023-11-07T13:51:03.095Z,1.90
2023-11-07T13:53:52.026Z,1.40
2023-11-07T13:57:16.693Z,1.60
2023-11-07T14:00:41.281Z,1.80
2023-11-07T14:04:06.544Z,1.50
2023-11-07T14:06:53.264Z,1.90
2023-11-07T14:09:40.696Z,1.90
2023-11-07T14:12:45.656Z,1.40
2023-11-07T14:16:28.809Z,1.50
2023-11-07T14:19:33.977Z,1.40
2023-11-07T14:22:01.517Z,1.40
2023-11-07T14:25:06.432Z,1.30
2023-11-07T14:27:52.368Z,1.80
2023-11-07T14:31:00.564Z,1.30
2023-11-07T14:34:25.165Z,1.40
2023-11-07T14:37:11.703Z,1.30
2023-11-07T14:40:17.249Z,1.30
2023-11-07T14:43:41.401Z,1.50
2023-11-07T14:46:28.212Z,1.20
2023-11-07T14:49:14.708Z,1.50
2023-11-07T14:52:21.120Z,1.30
2023-11-07T14:55:26.351Z,1.50
2023-11-07T14:57:54.959Z,1.40
2023-11-07T15:00:31.381Z,1.70
2023-11-07T15:03:55.787Z,1.30
2023-11-07T15:07:01.239Z,1.20
2023-11-07T15:09:28.674Z,1.30
2023-11-07T15:12:33.992Z,1.30
2023-11-07T15:15:39.175Z,1.70
2023-11-07T15:18:44.739Z,2.20
2023-11-07T15:21:50.024Z,1.30
2023-11-07T15:24:36.054Z,1.30
2023-11-07T15:27:22.271Z,1.30
2023-11-07T15:30:08.573Z,1.50
2023-11-07T15:32:56.299Z,1.40
2023-11-07T15:36:39.668Z,1.40
2023-11-07T15:40:03.605Z,1.70
2023-11-07T15:43:10.008Z,1.50
2023-11-07T15:46:34.596Z,2.00
2023-11-07T15:49:20.939Z,1.40
2023-11-07T15:52:07.372Z,1.70
2023-11-07T15:55:12.467Z,2.40
2023-11-07T15:57:58.871Z,2.00
2023-11-07T16:01:04.513Z,1.40
2023-11-07T16:04:28.829Z,1.40
2023-11-07T16:06:56.659Z,1.50
2023-11-07T16:09:24.182Z,1.80
2023-11-07T16:11:51.761Z,1.80
2023-11-07T16:14:19.570Z,1.60
2023-11-07T16:16:47.277Z,1.50
2023-11-07T16:19:14.986Z,1.90
2023-11-07T16:21:42.625Z,1.80
2023-11-07T16:24:10.247Z,1.80
2023-11-07T16:26:38.699Z,1.70
2023-11-07T16:29:06.121Z,1.80
2023-11-07T16:31:33.487Z,1.60
2023-11-07T16:34:01.350Z,1.50
2023-11-07T16:36:28.861Z,2.00
2023-11-07T16:38:56.355Z,1.90
2023-11-07T16:41:23.864Z,1.70
2023-11-07T16:43:52.500Z,1.70
2023-11-07T16:46:19.961Z,1.90
2023-11-07T16:48:47.775Z,2.10
2023-11-07T16:51:16.437Z,2.00
2023-11-07T16:53:45.907Z,1.90
2023-11-07T16:56:14.395Z,1.70
2023-11-07T16:58:42.015Z,1.80
2023-11-07T17:01:09.532Z,2.10
2023-11-07T17:03:37.612Z,2.40
2023-11-07T17:06:05.503Z,2.10
2023-11-07T17:08:33.602Z,2.40
2023-11-07T17:11:01.881Z,2.20
2023-11-07T17:13:29.354Z,2.10
2023-11-07T17:15:56.874Z,2.40
2023-11-07T17:18:24.400Z,1.70
2023-11-07T17:20:52.002Z,2.10
2023-11-07T17:23:19.987Z,2.00
2023-11-07T17:25:47.568Z,1.90
2023-11-07T17:28:15.034Z,2.20
2023-11-07T17:30:43.257Z,2.00
2023-11-07T17:33:10.987Z,2.30
2023-11-07T17:35:42.440Z,2.10
2023-11-07T17:38:10.913Z,1.90
2023-11-07T17:40:38.468Z,2.90
2023-11-07T17:43:08.625Z,2.20
2023-11-07T17:45:36.114Z,2.60
2023-11-07T17:48:04.655Z,2.00
2023-11-07T17:50:32.787Z,2.00
2023-11-07T17:53:02.718Z,2.40
2023-11-07T17:55:30.358Z,2.00
2023-11-07T17:57:57.771Z,2.10
2023-11-07T18:00:27.405Z,2.70
2023-11-07T18:02:55.060Z,2.30
2023-11-07T18:05:22.564Z,2.40
2023-11-07T18:07:50.215Z,2.70
2023-11-07T18:10:19.112Z,2.90
2023-11-07T18:12:46.639Z,3.60
2023-11-07T18:15:14.624Z,2.70
2023-11-07T18:17:42.764Z,2.90
2023-11-07T18:20:14.717Z,3.60
2023-11-07T18:22:42.528Z,3.80
2023-11-07T18:25:10.950Z,3.40
2023-11-07T18:27:39.469Z,3.40
2023-11-07T18:30:09.144Z,3.80
2023-11-07T18:32:36.710Z,2.50
2023-11-07T18:35:04.657Z,3.00
2023-11-07T18:37:32.221Z,2.70
2023-11-07T18:39:59.945Z,2.70
2023-11-07T18:42:29.922Z,2.90
2023-11-07T18:44:58.022Z,2.70
2023-11-07T18:47:27.862Z,3.20
2023-11-07T18:49:55.747Z,3.10
2023-11-07T18:52:24.819Z,2.80
2023-11-07T18:54:52.268Z,3.20
2023-11-07T18:57:19.693Z,2.80
2023-11-07T18:59:47.222Z,3.10
2023-11-07T19:02:15.258Z,3.30
2023-11-07T19:04:42.894Z,2.90
2023-11-07T19:07:12.862Z,3.10
2023-11-07T19:09:40.325Z,3.10
2023-11-07T19:12:08.443Z,3.10
2023-11-07T19:14:39.762Z,3.50
2023-11-07T19:19:37.084Z,3.60
2023-11-07T19:22:07.263Z,3.20
2023-11-07T19:24:35.442Z,2.90
2023-11-07T19:27:04.198Z,3.20
2023-11-07T19:29:31.876Z,3.10
2023-11-07T19:32:00.435Z,3.10
2023-11-07T19:34:28.007Z,3.20
2023-11-07T19:36:58.851Z,3.10
2023-11-07T19:39:26.502Z,2.80
2023-11-07T19:42:00.075Z,3.10
2023-11-07T19:44:31.357Z,3.20
2023-11-07T19:46:58.800Z,3.20
2023-11-07T19:49:29.286Z,3.40
2023-11-07T19:51:59.348Z,3.70
2023-11-07T19:54:27.950Z,2.70
2023-11-07T19:56:55.888Z,3.40
2023-11-07T19:59:23.388Z,2.90
2023-11-07T20:01:50.845Z,2.90
2023-11-07T20:04:18.626Z,3.70
2023-11-07T20:06:48.097Z,2.60
2023-11-07T20:09:16.838Z,2.50
2023-11-07T20:11:45.032Z,2.70
2023-11-07T20:14:12.562Z,2.70
2023-11-07T20:16:39.994Z,2.60
2023-11-07T20:19:07.592Z,2.60
2023-11-07T20:21:35.436Z,2.70
2023-11-07T20:24:03.776Z,2.80
2023-11-07T20:26:31.351Z,2.80
2023-11-07T20:28:59.141Z,3.00
2023-11-07T20:31:26.604Z,3.20
2023-11-07T20:33:54.108Z,3.20
2023-11-07T20:36:21.646Z,3.30
2023-11-07T20:38:49.208Z,2.80
2023-11-07T20:41:18.467Z,2.30
2023-11-07T20:43:47.710Z,3.00
2023-11-07T20:46:31.157Z,2.30
2023-11-07T20:49:04.225Z,3.10
2023-11-07T20:51:33.359Z,2.30
2023-11-07T20:54:00.898Z,2.90
2023-11-07T20:56:33.277Z,2.50
2023-11-07T20:59:00.785Z,2.40
2023-11-07T21:01:28.940Z,2.90
2023-11-07T21:03:57.359Z,2.50
2023-11-07T21:06:25.252Z,2.50
2023-11-07T21:08:54.449Z,2.50
2023-11-07T21:11:22.524Z,2.20
2023-11-07T21:13:53.379Z,2.30
2023-11-07T21:16:21.503Z,2.90
2023-11-07T21:18:50.369Z,2.80
2023-11-07T21:21:18.358Z,2.50
2023-11-07T21:23:45.922Z,2.30
2023-11-07T21:26:14.868Z,2.30
2023-11-07T21:28:42.437Z,2.70
2023-11-07T21:31:10.146Z,2.10
2023-11-07T21:33:39.972Z,2.70
2023-11-07T21:36:08.208Z,2.20
2023-11-07T21:38:36.211Z,2.50
2023-11-07T21:41:04.138Z,3.50
2023-11-07T21:43:31.663Z,3.20
2023-11-07T21:46:01.572Z,2.50
2023-11-07T21:48:29.417Z,2.50
2023-11-07T21:50:57.178Z,3.10
2023-11-07T21:53:25.713Z,2.90
2023-11-07T21:55:54.682Z,3.30
2023-11-07T21:58:22.207Z,2.70
2023-11-07T22:00:49.708Z,3.30
2023-11-07T22:03:17.322Z,2.80
2023-11-07T22:05:44.957Z,2.30
2023-11-07T22:08:12.471Z,2.20
2023-11-07T22:10:40.096Z,2.80
2023-11-07T22:13:07.522Z,2.20
2023-11-07T22:15:35.182Z,2.80
2023-11-07T22:18:03.022Z,2.30
2023-11-07T22:20:34.317Z,2.50
2023-11-07T22:23:02.350Z,2.90
2023-11-07T22:25:30.088Z,2.30
2023-11-07T22:28:00.038Z,2.80
2023-11-07T22:30:27.604Z,2.80
2023-11-07T22:32:55.263Z,2.50
2023-11-07T22:35:23.532Z,2.10
2023-11-07T22:37:51.544Z,2.40
2023-11-07T22:40:19.198Z,2.70
2023-11-07T22:42:46.676Z,2.30
2023-11-07T22:45:15.801Z,2.10
2023-11-07T22:47:46.668Z,2.50
2023-11-07T22:50:16.908Z,1.90
2023-11-07T22:52:44.641Z,2.10
2023-11-07T22:55:12.498Z,2.30
2023-11-07T22:57:40.303Z,1.90
2023-11-07T23:00:12.082Z,2.00
2023-11-07T23:02:40.848Z,2.60
2023-11-07T23:05:09.123Z,2.00
2023-11-07T23:07:36.639Z,2.30
2023-11-07T23:10:04.978Z,1.80
2023-11-07T23:12:32.428Z,2.20
2023-11-07T23:15:00.653Z,2.20
2023-11-07T23:17:28.333Z,2.00
2023-11-07T23:19:55.916Z,2.20
2023-11-07T23:22:23.373Z,1.90
2023-11-07T23:24:50.817Z,2.30
2023-11-07T23:27:18.284Z,2.20
2023-11-07T23:29:45.991Z,2.20
2023-11-07T23:32:13.605Z,2.20
2023-11-07T23:34:41.467Z,2.80
2023-11-07T23:37:09.716Z,2.20
2023-11-07T23:39:37.283Z,2.10
2023-11-07T23:42:05.648Z,2.20
2023-11-07T23:44:33.150Z,2.40
2023-11-07T23:47:00.646Z,3.40
2023-11-07T23:49:28.147Z,2.90
2023-11-07T23:51:55.808Z,2.30
2023-11-07T23:54:24.257Z,2.50
2023-11-07T23:56:52.027Z,2.50
2023-11-07T23:59:19.561Z,2.90
